Time;durP1;ratioP1;P1;durP2;ratioP2;P2;SDS_P1;SDS_P2;PMS_P1;PMS_P2;Temp;Humidity;BMP_temperature;BMP_pressure;BME280_temperature;BME280_humidity;BME280_pressure;Samples;Min_cycle;Max_cycle;Signal;HPM_P1;HPM_P2
2022/09/17 03:01:03;;;;;;;0.40;0.10;;;9.40;99.90;;;;;;5997242;23;88393;31
2022/09/17 03:03:50;;;;;;;;;;;9.30;99.90;;;;;;4891930;28;86743;-70
2022/09/17 03:06:17;;;;;;;0.35;0.10;;;9.30;99.90;;;;;;4898169;28;87049;-71
2022/09/17 03:08:44;;;;;;;0.25;0.00;;;9.40;99.90;;;;;;4899090;28;86388;-70
2022/09/17 03:11:11;;;;;;;0.73;0.10;;;9.20;99.90;;;;;;4894537;28;86933;-70
2022/09/17 03:13:37;;;;;;;0.65;0.10;;;9.20;99.90;;;;;;4890506;28;87964;-70
2022/09/17 03:16:04;;;;;;;0.25;0.03;;;9.30;99.90;;;;;;4896719;28;87954;-73
2022/09/17 03:18:30;;;;;;;0.47;0.10;;;9.40;99.90;;;;;;4898538;28;86394;-71
2022/09/17 03:20:56;;;;;;;0.85;0.10;;;9.50;99.90;;;;;;4898996;28;86994;-70
2022/09/17 03:23:22;;;;;;;0.98;0.50;;;9.60;99.90;;;;;;4898051;28;87243;-69
2022/09/17 03:25:50;;;;;;;0.40;0.10;;;9.70;99.90;;;;;;4898005;28;86927;-71
2022/09/17 03:28:16;;;;;;;0.73;0.10;;;9.70;99.90;;;;;;4896497;28;87174;-71
2022/09/17 03:30:46;;;;;;;0.40;0.10;;;9.70;99.90;;;;;;4898095;28;86333;-71
2022/09/17 03:33:12;;;;;;;1.30;0.10;;;9.70;99.90;;;;;;4896745;28;86459;-72
2022/09/17 03:35:41;;;;;;;2.03;0.10;;;9.60;99.90;;;;;;4896673;28;86340;-72
2022/09/17 03:38:06;;;;;;;0.30;0.10;;;9.60;99.90;;;;;;4898506;28;87845;-72
2022/09/17 03:40:32;;;;;;;0.82;0.08;;;9.60;99.90;;;;;;4899451;28;87414;-70
2022/09/17 03:42:57;;;;;;;0.35;0.03;;;9.40;99.90;;;;;;4898899;28;86844;-69
2022/09/17 03:45:23;;;;;;;0.40;0.10;;;9.50;99.90;;;;;;4898124;28;86988;-69
2022/09/17 03:47:49;;;;;;;0.20;0.00;;;9.50;99.90;;;;;;4898726;28;87818;-68
2022/09/17 03:50:14;;;;;;;0.80;0.10;;;9.50;99.90;;;;;;4899280;28;86887;-70
2022/09/17 03:52:42;;;;;;;0.77;0.10;;;9.50;99.90;;;;;;4900152;28;87777;-70
2022/09/17 03:55:08;;;;;;;0.50;0.10;;;9.40;99.90;;;;;;4898198;28;87347;-70
2022/09/17 03:57:33;;;;;;;0.68;0.10;;;9.20;99.90;;;;;;4899235;28;87802;-75
2022/09/17 03:59:59;;;;;;;1.48;0.10;;;9.20;99.90;;;;;;4898064;28;87064;-71
2022/09/17 04:02:25;;;;;;;0.40;0.10;;;9.20;99.90;;;;;;4901681;28;88099;-70
2022/09/17 04:04:51;;;;;;;2.17;0.00;;;9.30;99.90;;;;;;4916453;28;88270;-71
2022/09/17 04:07:17;;;;;;;0.60;0.10;;;9.30;99.90;;;;;;4916619;28;87166;-70
2022/09/17 04:09:43;;;;;;;1.30;0.10;;;9.20;99.90;;;;;;4916553;28;87083;-70
2022/09/17 04:12:08;;;;;;;0.80;0.10;;;9.20;99.90;;;;;;4914459;28;86728;-71
2022/09/17 04:14:34;;;;;;;0.65;0.10;;;9.30;99.90;;;;;;4916418;28;87019;-72
2022/09/17 04:17:00;;;;;;;1.08;0.10;;;9.30;99.90;;;;;;4915769;28;86727;-70
2022/09/17 04:19:25;;;;;;;2.20;0.20;;;9.40;99.90;;;;;;4916796;28;86476;-72
2022/09/17 04:21:51;;;;;;;0.73;0.17;;;9.40;99.90;;;;;;4915700;28;86975;-70
2022/09/17 04:24:17;;;;;;;0.43;0.20;;;9.40;99.90;;;;;;4915360;28;86992;-71
2022/09/17 04:26:43;;;;;;;1.05;0.00;;;9.40;99.90;;;;;;4914940;28;88182;-69
2022/09/17 04:29:09;;;;;;;1.02;0.10;;;9.50;99.90;;;;;;4918275;28;86346;-71
2022/09/17 04:31:35;;;;;;;0.95;0.10;;;9.50;99.90;;;;;;4918955;28;86883;-67
2022/09/17 04:34:00;;;;;;;0.50;0.20;;;9.40;99.90;;;;;;4918806;28;86886;-69
2022/09/17 04:36:26;;;;;;;3.75;0.20;;;9.40;99.90;;;;;;4917253;28;86370;-71
2022/09/17 04:38:52;;;;;;;1.38;0.20;;;9.30;99.90;;;;;;4917829;28;86322;-70
2022/09/17 04:41:18;;;;;;;2.25;0.20;;;9.30;99.90;;;;;;4915068;28;88527;-71
2022/09/17 04:43:44;;;;;;;1.38;0.20;;;9.40;99.90;;;;;;4916204;28;87205;-69
2022/09/17 04:46:09;;;;;;;1.10;0.10;;;9.50;99.90;;;;;;4916995;28;86265;-71
2022/09/17 04:48:35;;;;;;;1.13;0.15;;;9.50;99.90;;;;;;4922503;28;86449;-70
2022/09/17 04:51:01;;;;;;;1.88;0.20;;;9.50;99.90;;;;;;4916165;28;88138;-72
2022/09/17 04:53:27;;;;;;;2.25;0.20;;;9.50;99.90;;;;;;4917257;28;86951;-74
2022/09/17 04:55:52;;;;;;;1.10;0.10;;;9.60;99.90;;;;;;4916133;28;87195;-72
2022/09/17 04:58:18;;;;;;;2.25;0.13;;;9.60;99.90;;;;;;4916384;28;87325;-68
2022/09/17 05:00:44;;;;;;;0.80;0.10;;;9.70;99.90;;;;;;4917086;28;86726;-71
2022/09/17 05:03:09;;;;;;;2.25;0.28;;;9.70;99.90;;;;;;4910620;28;88218;-68
2022/09/17 05:05:35;;;;;;;0.68;0.10;;;9.70;99.90;;;;;;4910312;28;86754;-69
2022/09/17 05:08:01;;;;;;;0.65;0.10;;;9.80;99.90;;;;;;4917272;28;85894;-69
2022/09/17 05:10:27;;;;;;;4.03;0.20;;;9.80;99.90;;;;;;4916630;28;88307;-69
2022/09/17 05:12:55;;;;;;;1.42;0.20;;;9.90;99.90;;;;;;4918307;28;87029;-71
2022/09/17 05:15:22;;;;;;;1.40;0.10;;;9.90;99.90;;;;;;4917357;28;87594;-68
2022/09/17 05:17:48;;;;;;;0.50;0.10;;;10.00;99.90;;;;;;4916059;28;86992;-70
2022/09/17 05:20:15;;;;;;;2.40;0.20;;;10.10;99.90;;;;;;4913861;28;87482;-69
2022/09/17 05:22:48;;;;;;;1.38;0.13;;;10.10;99.90;;;;;;4915795;28;86924;-71
2022/09/17 05:25:16;;;;;;;1.25;0.20;;;10.10;99.90;;;;;;4913792;28;86884;-72
2022/09/17 05:27:42;;;;;;;0.77;0.43;;;10.10;99.90;;;;;;4915529;28;87872;-71
2022/09/17 05:30:10;;;;;;;2.22;0.20;;;10.20;99.90;;;;;;4914123;28;86683;-71
2022/09/17 05:32:36;;;;;;;3.00;0.20;;;10.10;99.90;;;;;;4913798;28;86971;-71
2022/09/17 05:35:02;;;;;;;2.47;0.20;;;10.00;99.90;;;;;;4912800;28;86275;-69
2022/09/17 05:37:28;;;;;;;1.55;0.20;;;9.50;99.90;;;;;;4914289;28;86826;-71
2022/09/17 05:39:54;;;;;;;2.08;0.10;;;9.20;99.90;;;;;;4913631;28;87370;-69
2022/09/17 05:42:20;;;;;;;0.60;0.10;;;9.10;99.90;;;;;;4912770;28;87056;-70
2022/09/17 05:44:45;;;;;;;3.28;0.20;;;9.20;99.90;;;;;;4913080;28;86288;-72
2022/09/17 05:47:11;;;;;;;2.20;0.20;;;9.20;99.90;;;;;;4914338;28;86830;-71
2022/09/17 05:49:37;;;;;;;0.90;0.28;;;9.30;99.90;;;;;;4914526;28;88211;-71
2022/09/17 05:52:03;;;;;;;1.85;0.20;;;9.50;99.90;;;;;;4914398;28;87072;-72
2022/09/17 05:54:29;;;;;;;1.13;0.20;;;9.40;99.90;;;;;;4913846;28;86390;-71
2022/09/17 05:56:55;;;;;;;2.30;0.40;;;9.50;99.90;;;;;;4914715;28;85987;-71
2022/09/17 05:59:21;;;;;;;1.95;0.40;;;9.60;99.90;;;;;;4913329;28;87117;-72
2022/09/17 06:01:47;;;;;;;1.35;0.20;;;9.40;99.90;;;;;;4915003;28;87578;-72
2022/09/17 06:04:13;;;;;;;1.05;0.30;;;9.40;99.90;;;;;;4913462;28;87162;-70
2022/09/17 06:06:40;;;;;;;1.77;0.20;;;9.40;99.90;;;;;;4913310;28;86294;-71
2022/09/17 06:09:07;;;;;;;0.73;0.20;;;9.40;99.90;;;;;;4911618;28;86692;-72
2022/09/17 06:11:33;;;;;;;1.08;0.20;;;9.40;99.90;;;;;;4913326;28;86909;-70
2022/09/17 06:13:59;;;;;;;1.58;0.20;;;9.50;99.90;;;;;;4915404;28;86827;-70
2022/09/17 06:16:25;;;;;;;1.52;0.20;;;9.70;99.90;;;;;;4914220;28;86900;-68
2022/09/17 06:18:54;;;;;;;1.90;0.25;;;9.70;99.90;;;;;;4913992;28;87199;-70
2022/09/17 06:21:21;;;;;;;1.15;0.30;;;9.90;99.90;;;;;;4908302;28;87327;-71
2022/09/17 06:23:48;;;;;;;0.73;0.13;;;9.90;99.90;;;;;;4911968;28;87067;-70
2022/09/17 06:26:13;;;;;;;0.52;0.17;;;10.00;99.90;;;;;;4912942;28;87072;-71
2022/09/17 06:28:39;;;;;;;8.77;2.97;;;10.10;99.90;;;;;;4908786;28;88086;-73
2022/09/17 06:31:07;;;;;;;16.02;6.55;;;10.10;99.90;;;;;;4908556;28;88274;-72
2022/09/17 06:33:35;;;;;;;18.85;9.23;;;10.30;99.90;;;;;;4910424;28;87513;-70
2022/09/17 06:36:06;;;;;;;3.45;1.10;;;10.30;99.90;;;;;;4912385;28;86320;-73
2022/09/17 06:38:34;;;;;;;5.85;0.98;;;10.50;99.90;;;;;;4910729;28;87012;-73
2022/09/17 06:41:00;;;;;;;1.27;0.10;;;10.80;99.90;;;;;;4912559;28;86763;-72
2022/09/17 06:43:26;;;;;;;1.63;0.30;;;11.00;99.90;;;;;;4913512;28;86629;-73
2022/09/17 06:46:00;;;;;;;2.45;0.35;;;11.10;99.90;;;;;;4914371;28;86754;-73
2022/09/17 06:48:28;;;;;;;0.75;0.13;;;11.40;99.90;;;;;;4912396;28;87547;-73
2022/09/17 06:50:54;;;;;;;0.73;0.10;;;12.40;99.90;;;;;;4911784;28;88791;-73
2022/09/17 06:53:23;;;;;;;2.53;0.52;;;12.10;99.90;;;;;;4910723;28;88036;-73
2022/09/17 06:55:49;;;;;;;2.78;0.10;;;11.70;99.90;;;;;;4907958;28;88116;-73
2022/09/17 06:58:15;;;;;;;1.67;0.17;;;11.60;99.90;;;;;;4911459;28;87104;-73
2022/09/17 07:00:41;;;;;;;2.42;0.10;;;11.40;99.90;;;;;;4908019;28;86713;-72
2022/09/17 07:03:08;;;;;;;1.70;0.40;;;11.40;99.90;;;;;;4912967;28;87063;-73
2022/09/17 07:05:34;;;;;;;1.98;0.30;;;11.40;99.70;;;;;;4913132;28;86655;-73
2022/09/17 07:08:04;;;;;;;0.95;0.13;;;11.50;99.80;;;;;;4913572;28;87668;-73
2022/09/17 07:10:30;;;;;;;0.82;0.20;;;11.60;99.90;;;;;;4915786;28;86402;-73
2022/09/17 07:12:57;;;;;;;3.38;0.20;;;11.60;98.50;;;;;;4917083;28;86639;-73
2022/09/17 07:15:23;;;;;;;3.20;0.10;;;11.40;99.90;;;;;;4917748;28;86434;-72
2022/09/17 07:17:49;;;;;;;2.28;0.20;;;11.40;99.90;;;;;;4916888;28;88398;-72
2022/09/17 07:20:15;;;;;;;1.58;0.22;;;11.80;99.90;;;;;;4916253;28;88175;-72
2022/09/17 07:22:40;;;;;;;3.20;0.13;;;11.80;99.90;;;;;;4918767;28;86516;-72
2022/09/17 07:25:07;;;;;;;1.00;0.13;;;11.80;99.90;;;;;;4908834;28;86838;-72
2022/09/17 07:27:32;;;;;;;0.80;0.10;;;11.50;98.30;;;;;;4915462;28;87128;-73
2022/09/17 07:29:58;;;;;;;0.85;0.38;;;11.50;99.80;;;;;;4916484;28;87174;-72
2022/09/17 07:32:24;;;;;;;3.15;0.10;;;11.50;99.90;;;;;;4914825;28;86964;-72
2022/09/17 07:34:51;;;;;;;2.97;0.40;;;11.50;99.90;;;;;;4917445;28;86412;-72
2022/09/17 07:37:17;;;;;;;1.23;0.10;;;11.40;99.90;;;;;;4915462;28;87445;-72
2022/09/17 07:39:42;;;;;;;1.98;0.20;;;11.60;99.20;;;;;;4915728;28;86956;-72
2022/09/17 07:42:09;;;;;;;2.28;0.20;;;12.10;99.90;;;;;;4911660;28;88373;-72
2022/09/17 07:44:35;;;;;;;0.80;0.10;;;13.10;99.90;;;;;;4914880;28;86245;-73
2022/09/17 07:47:00;;;;;;;1.38;0.10;;;13.30;99.50;;;;;;4914720;28;86756;-73
2022/09/17 07:49:26;;;;;;;3.70;0.10;;;12.60;95.50;;;;;;4914239;28;86309;-71
2022/09/17 07:51:53;;;;;;;1.27;0.17;;;12.30;99.90;;;;;;4912759;28;86367;-71
2022/09/17 07:54:19;;;;;;;1.13;0.10;;;12.10;95.80;;;;;;4914308;28;86788;-72
2022/09/17 07:56:45;;;;;;;1.65;0.20;;;11.70;95.30;;;;;;4915190;28;87177;-69
2022/09/17 07:59:11;;;;;;;2.47;0.20;;;11.50;97.40;;;;;;4911749;28;86100;-70
2022/09/17 08:01:37;;;;;;;1.88;0.20;;;11.60;96.80;;;;;;4912457;28;86460;-70
2022/09/17 08:04:03;;;;;;;1.05;0.15;;;11.60;97.80;;;;;;4912494;28;86546;-72
2022/09/17 08:06:29;;;;;;;1.75;0.15;;;11.60;97.00;;;;;;4912854;28;87862;-71
2022/09/17 08:08:57;;;;;;;0.95;0.10;;;11.50;96.90;;;;;;4911438;28;87489;-71
2022/09/17 08:11:26;;;;;;;0.90;0.10;;;11.50;96.60;;;;;;4914999;28;87086;-72
2022/09/17 08:13:53;;;;;;;2.83;0.20;;;11.50;96.50;;;;;;4912099;28;86718;-70
2022/09/17 08:16:20;;;;;;;0.75;0.20;;;11.40;97.00;;;;;;4912495;28;87376;-70
2022/09/17 08:18:47;;;;;;;1.35;0.10;;;11.50;96.60;;;;;;4913663;28;87119;-70
2022/09/17 08:21:15;;;;;;;1.08;0.10;;;11.60;96.70;;;;;;4912764;28;86317;-72
2022/09/17 08:23:42;;;;;;;1.52;0.20;;;12.00;95.50;;;;;;4911893;28;87130;-71
2022/09/17 08:26:15;;;;;;;3.05;0.15;;;12.20;94.70;;;;;;4913720;28;87370;-71
2022/09/17 08:28:45;;;;;;;2.47;0.10;;;12.50;94.10;;;;;;4914113;28;87033;-71
2022/09/17 08:31:11;;;;;;;1.52;0.20;;;12.70;91.70;;;;;;4912304;28;87545;-70
2022/09/17 08:33:39;;;;;;;1.42;0.20;;;12.60;92.30;;;;;;4912856;28;86563;-71
2022/09/17 08:36:07;;;;;;;2.63;0.10;;;12.40;91.70;;;;;;4909359;28;87853;-71
2022/09/17 08:38:37;;;;;;;2.13;0.30;;;12.20;92.30;;;;;;4911915;28;87765;-71
2022/09/17 08:41:11;;;;;;;1.58;0.20;;;11.90;92.40;;;;;;4921315;28;86890;-69
2022/09/17 08:44:07;;;;;;;3.58;0.10;;;12.00;93.00;;;;;;4913451;28;87302;-68
2022/09/17 08:46:39;;;;;;;;;;;12.50;92.10;;;;;;4914365;28;87271;-69
2022/09/17 08:49:28;;;;;;;0.75;0.25;;;16.00;86.30;;;;;;4915815;28;85935;-69
2022/09/17 08:52:38;;;;;;;2.15;0.20;;;20.40;73.50;;;;;;4911115;28;87023;-70
2022/09/17 08:55:10;;;;;;;1.67;0.95;;;21.60;59.40;;;;;;4908954;28;86336;-71
2022/09/17 08:57:51;;;;;;;1.38;0.50;;;23.30;61.00;;;;;;4914614;28;87455;-70
2022/09/17 09:00:28;;;;;;;0.98;0.25;;;26.20;49.10;;;;;;4915909;28;87236;-73
2022/09/17 09:03:03;;;;;;;1.55;1.30;;;26.80;52.50;;;;;;4911262;28;86699;-69
2022/09/17 09:05:51;;;;;;;1.98;1.33;;;29.70;44.90;;;;;;4916446;28;86903;-68
2022/09/17 09:08:43;;;;;;;1.75;0.90;;;30.70;42.90;;;;;;4915120;28;86774;-69
2022/09/17 09:11:15;;;;;;;1.85;0.50;;;29.30;39.80;;;;;;4913176;28;88008;-68
2022/09/17 09:13:48;;;;;;;2.30;1.00;;;29.30;43.10;;;;;;4908577;28;87009;-67
2022/09/17 09:16:24;;;;;;;1.90;0.93;;;31.30;41.30;;;;;;4909439;28;85840;-73
2022/09/17 09:18:53;;;;;;;1.83;0.50;;;29.70;36.80;;;;;;4908876;28;87240;-67
2022/09/17 09:22:04;;;;;;;2.17;0.60;;;27.00;42.00;;;;;;4911597;28;86510;-70
2022/09/17 09:24:49;;;;;;;1.05;0.47;;;24.90;44.70;;;;;;4847669;28;87746;-71
2022/09/17 09:27:17;;;;;;;1.10;0.60;;;23.50;47.10;;;;;;4849529;28;86708;-70
2022/09/17 09:30:06;;;;;;;1.67;0.60;;;22.30;48.50;;;;;;4888412;28;87220;-73
2022/09/17 09:32:43;;;;;;;1.23;0.47;;;21.40;50.30;;;;;;4911177;28;86323;-71
2022/09/17 09:35:20;;;;;;;1.27;0.32;;;21.80;49.30;;;;;;4911271;28;86444;-70
2022/09/17 09:38:26;;;;;;;0.90;0.40;;;21.60;50.00;;;;;;4913761;28;86844;-69
2022/09/17 09:41:31;;;;;;;5.20;0.50;;;20.20;53.60;;;;;;4910647;28;87133;-71
2022/09/17 09:44:02;;;;;;;1.02;0.38;;;18.80;54.40;;;;;;4914400;28;86944;-69
2022/09/17 09:46:47;;;;;;;1.95;0.57;;;18.60;56.50;;;;;;4911156;28;86976;-70
2022/09/17 09:49:31;;;;;;;1.70;0.30;;;19.80;55.60;;;;;;4908361;28;87725;-70
2022/09/17 09:52:05;;;;;;;1.58;0.30;;;20.80;53.70;;;;;;4909300;28;88609;-73
2022/09/17 09:54:41;;;;;;;1.40;0.38;;;20.20;53.90;;;;;;4912010;28;87927;-72
2022/09/17 09:57:11;;;;;;;1.70;0.95;;;19.20;55.50;;;;;;4913028;28;86322;-74
2022/09/17 09:59:40;;;;;;;1.27;0.20;;;17.90;57.00;;;;;;4911427;28;86872;-71
2022/09/17 10:02:06;;;;;;;1.92;0.30;;;17.10;59.40;;;;;;4910412;28;86769;-72
2022/09/17 10:04:32;;;;;;;1.35;0.47;;;19.20;58.90;;;;;;4910309;28;86595;-70
2022/09/17 10:07:10;;;;;;;1.48;0.60;;;24.90;49.40;;;;;;4911151;28;86976;-70
2022/09/17 10:09:38;;;;;;;1.73;0.80;;;28.90;41.10;;;;;;4907649;28;86176;-72
2022/09/17 10:12:09;;;;;;;1.90;0.80;;;30.40;38.80;;;;;;4914498;28;87090;-71
2022/09/17 10:14:47;;;;;;;1.52;0.77;;;31.00;37.80;;;;;;4911459;28;86306;-70
2022/09/17 10:17:23;;;;;;;2.80;0.68;;;28.20;39.20;;;;;;4907624;28;88756;-71
2022/09/17 10:20:04;;;;;;;3.25;0.70;;;25.30;45.70;;;;;;4911816;28;87525;-71
2022/09/17 10:22:35;;;;;;;1.00;0.70;;;25.10;43.70;;;;;;4907749;28;87694;-70
2022/09/17 10:25:04;;;;;;;2.38;0.32;;;24.10;44.70;;;;;;4905899;28;86901;-72
2022/09/17 10:27:30;;;;;;;;;;;23.00;48.80;;;;;;4892562;28;86593;-71
2022/09/17 10:30:14;;;;;;;0.73;0.40;;;22.40;49.50;;;;;;4909434;28;86845;-71
2022/09/17 10:32:39;;;;;;;1.13;0.60;;;22.00;50.80;;;;;;4912262;28;87439;-69
2022/09/17 10:35:23;;;;;;;0.80;0.40;;;21.50;49.60;;;;;;4911747;28;86859;-71
2022/09/17 10:37:51;;;;;;;1.30;0.38;;;21.00;49.80;;;;;;4915507;28;86306;-69
2022/09/17 10:40:20;;;;;;;0.73;0.50;;;19.90;51.00;;;;;;4918159;28;88858;-73
2022/09/17 10:42:50;;;;;;;1.15;0.20;;;19.50;53.00;;;;;;4914656;28;90188;-71
2022/09/17 10:45:27;;;;;;;0.57;0.30;;;19.10;52.40;;;;;;4909862;28;87975;-71
2022/09/17 10:47:55;;;;;;;0.93;0.30;;;18.80;55.20;;;;;;4909574;28;86748;-70
2022/09/17 10:50:34;;;;;;;2.08;0.13;;;18.30;55.50;;;;;;4912959;28;86640;-69
2022/09/17 10:53:03;;;;;;;1.48;0.40;;;17.80;57.50;;;;;;4912804;28;87205;-72
2022/09/17 10:55:35;;;;;;;4.22;0.28;;;17.30;57.70;;;;;;4911197;28;87463;-71
2022/09/17 10:58:06;;;;;;;0.82;0.20;;;17.20;57.90;;;;;;4914993;28;86747;-70
2022/09/17 11:00:58;;;;;;;0.57;0.20;;;17.00;59.60;;;;;;4907801;28;87571;-69
2022/09/17 11:03:35;;;;;;;10.50;0.45;;;17.20;59.60;;;;;;4898301;28;86998;-70
2022/09/17 11:06:22;;;;;;;1.48;0.20;;;17.30;59.80;;;;;;4894899;28;88952;-69
2022/09/17 11:09:32;;;;;;;0.98;0.20;;;17.20;61.20;;;;;;4906899;28;87892;-73
2022/09/17 11:12:22;;;;;;;1.15;0.20;;;17.20;60.10;;;;;;4879560;28;88327;-70
2022/09/17 11:14:59;;;;;;;1.88;0.22;;;17.20;62.10;;;;;;4911299;28;87640;-70
2022/09/17 11:17:42;;;;;;;0.45;0.10;;;17.30;60.40;;;;;;4915812;28;86723;-70
2022/09/17 11:20:11;;;;;;;1.05;0.20;;;17.70;62.10;;;;;;4909241;28;87178;-70
2022/09/17 11:23:05;;;;;;;0.82;0.20;;;17.90;59.90;;;;;;4912070;28;87062;-70
2022/09/17 11:25:57;;;;;;;1.50;0.20;;;18.20;58.30;;;;;;4909220;28;87879;-73
2022/09/17 11:28:25;;;;;;;1.80;0.20;;;18.20;58.20;;;;;;4906883;28;86364;-69
2022/09/17 11:31:00;;;;;;;2.40;0.75;;;18.00;59.30;;;;;;4906406;28;86816;-71
2022/09/17 11:34:03;;;;;;;0.80;0.30;;;17.60;58.90;;;;;;4909083;28;87160;-70
2022/09/17 11:36:37;;;;;;;1.30;0.22;;;17.20;59.10;;;;;;4910799;28;89127;-73
2022/09/17 11:39:20;;;;;;;1.88;0.32;;;16.90;60.40;;;;;;4904929;28;87403;-73
2022/09/17 11:41:51;;;;;;;1.10;0.20;;;16.20;62.60;;;;;;4908192;28;87211;-72
2022/09/17 11:44:29;;;;;;;0.80;0.22;;;15.70;67.50;;;;;;4908772;28;87171;-72
2022/09/17 11:47:32;;;;;;;1.92;0.20;;;15.00;70.80;;;;;;4909668;28;87365;-70
2022/09/17 11:50:15;;;;;;;1.13;0.13;;;14.80;71.80;;;;;;4906618;28;87215;-72
2022/09/17 11:53:02;;;;;;;1.00;0.10;;;15.00;70.50;;;;;;4911597;28;86633;-69
2022/09/17 11:55:44;;;;;;;0.70;0.10;;;15.70;68.80;;;;;;4913676;28;86133;-71
2022/09/17 11:58:16;;;;;;;0.47;0.10;;;16.00;69.20;;;;;;4911625;28;87559;-70
2022/09/17 12:00:59;;;;;;;2.78;0.22;;;15.80;70.00;;;;;;4909342;28;87093;-69
2022/09/17 12:03:35;;;;;;;2.80;0.40;;;15.20;72.30;;;;;;4906600;28;87860;-70
2022/09/17 12:06:17;;;;;;;0.88;0.00;;;14.90;73.40;;;;;;4913176;28;86602;-69
2022/09/17 12:09:01;;;;;;;2.78;0.10;;;14.40;76.70;;;;;;4910489;28;87125;-69
2022/09/17 12:11:47;;;;;;;0.40;0.10;;;14.30;77.10;;;;;;4911310;28;87027;-69
2022/09/17 12:14:19;;;;;;;1.38;0.20;;;14.50;75.80;;;;;;4910370;28;86553;-71
2022/09/17 12:16:48;;;;;;;1.63;0.20;;;14.50;75.90;;;;;;4911694;28;86840;-70
2022/09/17 12:19:14;;;;;;;;;;;14.40;75.30;;;;;;4907049;28;87037;-68
2022/09/17 12:21:46;;;;;;;0.77;0.00;;;14.00;77.40;;;;;;4907223;28;86349;-71
2022/09/17 12:24:25;;;;;;;0.88;0.20;;;13.80;78.40;;;;;;4908317;28;86974;-70
2022/09/17 12:27:14;;;;;;;2.30;0.35;;;13.50;79.90;;;;;;4908321;28;86407;-70
2022/09/17 12:30:07;;;;;;;1.95;0.20;;;13.40;82.80;;;;;;4907509;28;88533;-69
2022/09/17 12:32:48;;;;;;;1.65;0.22;;;13.00;85.30;;;;;;4909021;28;87908;-70
2022/09/17 12:35:22;;;;;;;4.38;0.38;;;12.90;88.70;;;;;;4911427;28;87303;-70
2022/09/17 12:38:06;;;;;;;1.40;0.10;;;13.00;89.10;;;;;;4909895;28;87703;-71
2022/09/17 12:40:42;;;;;;;1.13;0.10;;;13.00;88.90;;;;;;4910739;28;87537;-69
2022/09/17 12:43:27;;;;;;;1.15;0.20;;;13.10;90.00;;;;;;4909116;28;87646;-70
2022/09/17 12:45:56;;;;;;;5.10;0.20;;;13.10;90.90;;;;;;4910411;28;86437;-69
2022/09/17 12:48:40;;;;;;;1.73;0.20;;;13.20;91.00;;;;;;4913123;28;86257;-69
2022/09/17 12:51:38;;;;;;;2.83;0.20;;;13.40;90.10;;;;;;4908669;28;87092;-72
2022/09/17 12:54:18;;;;;;;2.13;0.20;;;13.30;90.20;;;;;;4874645;28;87272;-71
2022/09/17 12:57:23;;;;;;;1.48;0.20;;;13.40;91.40;;;;;;4911162;28;87209;-70
2022/09/17 12:59:59;;;;;;;0.75;0.17;;;13.10;91.20;;;;;;4910888;28;87009;-69
2022/09/17 13:02:52;;;;;;;1.92;0.25;;;13.10;91.60;;;;;;4907756;28;88056;-68
2022/09/17 13:05:30;;;;;;;1.23;0.10;;;13.10;91.30;;;;;;4903204;28;87689;-68
2022/09/17 13:08:04;;;;;;;1.02;0.20;;;13.50;91.50;;;;;;4912077;28;86950;-71
2022/09/17 13:10:42;;;;;;;2.13;0.25;;;13.90;90.70;;;;;;4912997;28;86283;-71
2022/09/17 13:13:45;;;;;;;2.97;0.30;;;14.30;89.90;;;;;;4912331;28;87261;-70
2022/09/17 13:16:39;;;;;;;1.00;0.20;;;14.60;89.30;;;;;;4893542;28;86720;-69
2022/09/17 13:19:23;;;;;;;1.65;0.25;;;15.00;87.90;;;;;;4913746;28;86979;-71
2022/09/17 13:22:09;;;;;;;0.85;0.25;;;14.90;86.40;;;;;;4916364;28;86225;-70
2022/09/17 13:24:36;;;;;;;1.40;0.30;;;14.90;85.00;;;;;;4907787;28;89069;-71
2022/09/17 13:27:03;;;;;;;1.23;0.10;;;15.10;85.50;;;;;;4910681;28;87947;-70
2022/09/17 13:29:47;;;;;;;3.00;0.40;;;15.40;84.50;;;;;;4912974;28;87213;-70
2022/09/17 13:32:31;;;;;;;1.02;0.13;;;15.30;85.30;;;;;;4913232;28;86320;-70
2022/09/17 13:35:08;;;;;;;1.27;0.20;;;15.50;82.50;;;;;;4916773;28;86712;-70
2022/09/17 13:37:37;;;;;;;1.27;0.22;;;15.20;85.50;;;;;;4908697;28;87354;-73
2022/09/17 13:40:05;;;;;;;1.77;0.20;;;15.20;84.40;;;;;;4914922;28;86886;-71
2022/09/17 13:42:45;;;;;;;3.92;1.45;;;15.20;83.50;;;;;;4908833;28;86284;-69
2022/09/17 13:45:15;;;;;;;2.55;1.05;;;15.10;83.20;;;;;;4909773;28;87227;-73
2022/09/17 13:47:54;;;;;;;1.00;0.20;;;14.90;82.30;;;;;;4912909;28;86447;-71
2022/09/17 13:50:33;;;;;;;1.23;0.20;;;14.70;84.30;;;;;;4915386;28;88087;-70
2022/09/17 13:53:07;;;;;;;1.55;0.20;;;14.30;82.40;;;;;;4909922;28;86824;-71
2022/09/17 13:55:58;;;;;;;0.63;0.20;;;14.00;86.50;;;;;;4911675;28;86820;-70
2022/09/17 13:58:30;;;;;;;1.70;0.03;;;13.50;87.30;;;;;;4898007;28;87195;-71
2022/09/17 14:01:00;;;;;;;2.83;0.10;;;12.90;89.40;;;;;;4909359;28;86274;-70
2022/09/17 14:03:39;;;;;;;0.98;0.10;;;12.90;87.80;;;;;;4913006;28;86429;-69
2022/09/17 14:06:07;;;;;;;0.30;0.10;;;12.90;87.90;;;;;;4914281;28;87661;-71
2022/09/17 14:08:56;;;;;;;0.55;0.10;;;12.80;88.10;;;;;;4909642;28;87568;-71
2022/09/17 14:11:22;;;;;;;0.65;0.10;;;12.90;87.50;;;;;;4918755;28;86876;-71
2022/09/17 14:13:56;;;;;;;0.50;0.10;;;13.10;86.70;;;;;;4915321;28;86396;-71
2022/09/17 14:16:35;;;;;;;1.15;0.20;;;12.90;86.80;;;;;;4916873;28;88309;-71
2022/09/17 14:19:28;;;;;;;1.40;0.10;;;13.30;87.50;;;;;;4911372;28;87242;-70
2022/09/17 14:21:58;;;;;;;1.55;0.20;;;13.50;87.60;;;;;;4919140;28;86636;-72
2022/09/17 14:24:35;;;;;;;1.08;0.20;;;13.60;88.70;;;;;;4916855;28;86863;-70
2022/09/17 14:27:29;;;;;;;0.43;0.10;;;14.00;83.10;;;;;;4917219;28;87763;-71
2022/09/17 14:30:28;;;;;;;0.45;0.17;;;14.20;82.90;;;;;;4912375;28;87167;-68
2022/09/17 14:33:12;;;;;;;0.32;0.10;;;14.10;82.50;;;;;;4912109;28;88218;-73
2022/09/17 14:35:50;;;;;;;1.30;0.10;;;13.90;83.10;;;;;;4914662;28;86698;-70
2022/09/17 14:38:24;;;;;;;1.02;0.17;;;14.00;83.40;;;;;;4913581;28;87791;-71
2022/09/17 14:41:03;;;;;;;0.40;0.10;;;14.10;82.40;;;;;;4916738;28;86621;-69
2022/09/17 14:43:29;;;;;;;0.20;0.00;;;14.00;83.30;;;;;;4910723;28;90039;-71
2022/09/17 14:45:56;;;;;;;0.75;0.05;;;13.80;82.20;;;;;;4912299;28;86330;-71
2022/09/17 14:48:33;;;;;;;1.58;0.17;;;13.50;85.00;;;;;;4915961;28;87257;-70
2022/09/17 14:51:17;;;;;;;0.60;0.10;;;13.40;84.30;;;;;;4914283;28;87763;-70
2022/09/17 14:54:09;;;;;;;0.55;0.00;;;13.20;85.10;;;;;;4916072;28;86444;-72
2022/09/17 14:56:45;;;;;;;0.30;0.00;;;13.20;85.40;;;;;;4916117;28;87364;-73
2022/09/17 14:59:28;;;;;;;1.10;0.38;;;13.10;84.90;;;;;;4912746;28;87233;-69
2022/09/17 15:01:54;;;;;;;1.10;0.10;;;13.10;87.30;;;;;;4909980;28;87328;-72
2022/09/17 15:04:27;;;;;;;1.85;0.40;;;13.30;86.80;;;;;;4901821;28;86730;-70
2022/09/17 15:07:08;;;;;;;0.80;0.10;;;13.50;86.40;;;;;;4916253;28;87009;-70
2022/09/17 15:09:34;;;;;;;0.68;0.10;;;13.70;85.70;;;;;;4916065;28;88546;-72
2022/09/17 15:12:01;;;;;;;0.95;0.30;;;13.80;85.80;;;;;;4917897;28;87893;-69
2022/09/17 15:14:32;;;;;;;3.35;0.35;;;13.90;85.90;;;;;;4916319;28;86693;-71
2022/09/17 15:17:00;;;;;;;1.55;0.50;;;14.00;84.70;;;;;;4909989;28;86319;-68
2022/09/17 15:19:34;;;;;;;1.77;0.40;;;14.00;84.70;;;;;;4912892;28;87648;-68
2022/09/17 15:22:14;;;;;;;1.92;0.70;;;13.90;86.10;;;;;;4913157;28;87847;-68
2022/09/17 15:24:46;;;;;;;0.60;0.20;;;13.80;86.30;;;;;;4909504;28;86312;-74
2022/09/17 15:27:22;;;;;;;0.82;0.10;;;13.90;86.90;;;;;;4914583;28;86191;-68
2022/09/17 15:30:15;;;;;;;1.27;0.17;;;14.10;86.00;;;;;;4916458;28;87440;-70
2022/09/17 15:32:50;;;;;;;0.60;0.10;;;14.30;86.10;;;;;;4912581;28;86282;-68
2022/09/17 15:35:19;;;;;;;1.25;0.20;;;14.40;86.20;;;;;;4915479;28;87665;-70
2022/09/17 15:37:56;;;;;;;0.65;0.15;;;14.30;84.20;;;;;;4912715;28;86955;-69
2022/09/17 15:40:31;;;;;;;0.80;0.13;;;14.30;84.40;;;;;;4909247;28;86771;-72
2022/09/17 15:43:15;;;;;;;0.32;0.03;;;14.20;85.20;;;;;;4911244;28;86712;-71
2022/09/17 15:45:41;;;;;;;0.57;0.10;;;14.20;85.70;;;;;;4910763;28;87254;-71
2022/09/17 15:48:38;;;;;;;1.15;0.20;;;14.00;84.40;;;;;;4916735;28;86559;-68
2022/09/17 15:51:14;;;;;;;2.42;0.10;;;13.90;84.60;;;;;;4908595;28;86951;-69
2022/09/17 15:53:51;;;;;;;0.60;0.20;;;13.80;84.60;;;;;;4915560;28;86163;-70
2022/09/17 15:56:21;;;;;;;1.05;0.30;;;13.70;84.70;;;;;;4911890;28;86340;-71
2022/09/17 15:58:56;;;;;;;0.63;0.10;;;13.50;85.50;;;;;;4917015;28;86945;-71
2022/09/17 16:01:28;;;;;;;0.73;0.20;;;13.40;86.50;;;;;;4914575;28;88057;-75
2022/09/17 16:04:16;;;;;;;1.10;0.10;;;13.20;88.20;;;;;;4912956;28;87105;-69
2022/09/17 16:06:54;;;;;;;0.63;0.10;;;12.90;89.20;;;;;;4917098;28;86988;-73
2022/09/17 16:09:45;;;;;;;0.50;0.20;;;12.90;89.40;;;;;;4917807;28;86758;-68
2022/09/17 16:12:29;;;;;;;0.60;0.10;;;12.80;90.00;;;;;;4908133;28;87412;-73
2022/09/17 16:14:57;;;;;;;0.55;0.13;;;12.80;89.90;;;;;;4913144;28;86857;-68
2022/09/17 16:17:31;;;;;;;2.25;0.20;;;12.90;90.10;;;;;;4918252;28;86657;-71
2022/09/17 16:19:59;;;;;;;0.85;0.20;;;12.90;89.60;;;;;;4917155;28;86094;-69
2022/09/17 16:22:25;;;;;;;0.30;0.10;;;12.90;88.50;;;;;;4914262;28;86826;-71